Time;durP1;ratioP1;P1;durP2;ratioP2;P2;SDS_P1;SDS_P2;PMS_P1;PMS_P2;Temp;Humidity;BMP_temperature;BMP_pressure;BME280_temperature;BME280_humidity;BME280_pressure;Samples;Min_cycle;Max_cycle;Signal;HPM_P1;HPM_P2
2023/10/03 00:02:05;;;;;;;17.13;13.20;;;;;;;;;;6207639;28;20200;-72
2023/10/03 00:05:08;;;;;;;16.93;12.23;;;;;;;;;;6200019;28;20210;-72
2023/10/03 00:08:09;;;;;;;20.37;13.10;;;;;;;;;;6214244;28;20250;-72
2023/10/03 00:11:16;;;;;;;19.83;12.47;;;;;;;;;;6220768;28;20209;-72
2023/10/03 00:14:18;;;;;;;17.60;12.50;;;;;;;;;;6227747;28;20210;-72
2023/10/03 00:17:19;;;;;;;21.87;13.47;;;;;;;;;;6236423;28;20196;-72
2023/10/03 00:20:22;;;;;;;18.70;12.97;;;;;;;;;;6214042;28;20202;-72
2023/10/03 00:23:24;;;;;;;18.43;12.97;;;;;;;;;;6228931;28;20243;-72
2023/10/03 00:26:28;;;;;;;17.07;12.43;;;;;;;;;;6207903;28;20219;-72
2023/10/03 00:29:29;;;;;;;16.50;12.57;;;;;;;;;;6209503;28;20185;-72
2023/10/03 00:32:31;;;;;;;19.80;13.07;;;;;;;;;;6213556;28;20203;-72
2023/10/03 00:35:32;;;;;;;21.13;13.60;;;;;;;;;;6210585;28;20187;-72
2023/10/03 00:38:34;;;;;;;16.87;13.43;;;;;;;;;;6203895;28;20197;-72
2023/10/03 00:41:35;;;;;;;18.60;12.27;;;;;;;;;;6199260;28;20201;-72
2023/10/03 00:44:37;;;;;;;17.40;13.47;;;;;;;;;;6204038;28;20213;-72
2023/10/03 00:47:38;;;;;;;21.03;13.03;;;;;;;;;;6221784;28;20187;-72
2023/10/03 00:50:42;;;;;;;19.03;13.27;;;;;;;;;;6202759;28;20588;-72
2023/10/03 00:53:43;;;;;;;18.67;13.27;;;;;;;;;;6201153;28;20196;-72
2023/10/03 00:56:45;;;;;;;20.90;13.10;;;;;;;;;;6212768;28;20183;-72
2023/10/03 00:59:48;;;;;;;18.40;13.13;;;;;;;;;;6214496;28;20231;-72
2023/10/03 01:02:50;;;;;;;20.63;13.33;;;;;;;;;;6214943;28;20188;-72
2023/10/03 01:05:52;;;;;;;19.03;13.13;;;;;;;;;;6229929;28;20299;-72
2023/10/03 01:08:54;;;;;;;18.20;12.47;;;;;;;;;;6211115;28;20191;-72
2023/10/03 01:11:56;;;;;;;16.70;11.60;;;;;;;;;;6211258;28;20192;-72
2023/10/03 01:14:57;;;;;;;18.07;12.50;;;;;;;;;;6231504;28;20195;-72
2023/10/03 01:18:00;;;;;;;23.47;12.73;;;;;;;;;;6231363;28;20203;-72
2023/10/03 01:21:05;;;;;;;18.60;12.63;;;;;;;;;;6208571;28;20290;-72
2023/10/03 01:24:09;;;;;;;16.20;12.50;;;;;;;;;;6203108;28;20240;-72
2023/10/03 01:27:10;;;;;;;18.57;12.87;;;;;;;;;;6209857;28;20213;-73
2023/10/03 01:30:12;;;;;;;21.03;12.77;;;;;;;;;;6212339;28;20281;-72
2023/10/03 01:33:13;;;;;;;19.27;12.33;;;;;;;;;;6225829;28;20199;-72
2023/10/03 01:36:15;;;;;;;20.63;14.00;;;;;;;;;;6234287;28;20222;-72
2023/10/03 01:39:16;;;;;;;15.77;12.00;;;;;;;;;;6228250;28;20210;-73
2023/10/03 01:42:18;;;;;;;19.57;12.57;;;;;;;;;;6229667;28;20188;-73
2023/10/03 01:45:19;;;;;;;18.77;13.47;;;;;;;;;;6221030;28;20233;-73
2023/10/03 01:48:20;;;;;;;18.23;13.03;;;;;;;;;;6220110;28;20217;-72
2023/10/03 01:51:21;;;;;;;19.80;12.93;;;;;;;;;;6231851;28;20183;-72
2023/10/03 01:54:23;;;;;;;19.73;12.23;;;;;;;;;;6218201;28;20190;-72
2023/10/03 01:57:24;;;;;;;20.17;12.43;;;;;;;;;;6217837;28;20202;-72
2023/10/03 02:00:26;;;;;;;17.07;12.30;;;;;;;;;;6208709;28;20187;-72
2023/10/03 02:03:29;;;;;;;17.93;12.73;;;;;;;;;;6225581;28;20267;-72
2023/10/03 02:06:30;;;;;;;15.70;11.77;;;;;;;;;;6228323;28;20234;-72
2023/10/03 02:09:31;;;;;;;22.97;12.77;;;;;;;;;;6210205;28;20191;-72
2023/10/03 02:12:32;;;;;;;19.53;13.43;;;;;;;;;;6213924;28;20201;-72
2023/10/03 02:15:36;;;;;;;21.63;12.67;;;;;;;;;;6200345;28;20191;-72
2023/10/03 02:18:37;;;;;;;21.07;12.47;;;;;;;;;;6220448;28;20191;-72
2023/10/03 02:21:41;;;;;;;19.27;12.60;;;;;;;;;;6216136;28;20198;-72
2023/10/03 02:24:44;;;;;;;19.03;12.50;;;;;;;;;;6220149;28;20227;-72
2023/10/03 02:27:46;;;;;;;17.47;11.60;;;;;;;;;;6209210;28;20192;-72
2023/10/03 02:30:48;;;;;;;17.10;12.57;;;;;;;;;;6207852;28;20188;-72
2023/10/03 02:33:50;;;;;;;19.50;11.70;;;;;;;;;;6214830;28;20190;-72
2023/10/03 02:36:51;;;;;;;18.30;12.23;;;;;;;;;;6205877;28;20237;-72
2023/10/03 02:39:52;;;;;;;23.43;12.23;;;;;;;;;;6221242;28;20214;-72
2023/10/03 02:42:54;;;;;;;20.23;13.03;;;;;;;;;;6200220;28;20200;-72
2023/10/03 02:45:55;;;;;;;19.80;13.20;;;;;;;;;;6217296;28;20211;-73
2023/10/03 02:48:56;;;;;;;21.20;12.43;;;;;;;;;;6214647;28;20183;-72
2023/10/03 02:52:00;;;;;;;22.37;12.57;;;;;;;;;;6205488;28;20217;-72
2023/10/03 02:55:01;;;;;;;19.27;13.87;;;;;;;;;;6211783;28;20188;-72
2023/10/03 02:58:02;;;;;;;19.43;13.10;;;;;;;;;;6223761;28;20183;-72
2023/10/03 03:01:03;;;;;;;20.73;12.27;;;;;;;;;;6222127;28;20194;-72
2023/10/03 03:04:05;;;;;;;19.73;12.63;;;;;;;;;;6209688;28;20190;-72
2023/10/03 03:07:06;;;;;;;18.73;12.50;;;;;;;;;;6218167;28;20195;-72
2023/10/03 03:10:08;;;;;;;19.97;13.50;;;;;;;;;;6215011;28;20234;-72
2023/10/03 03:13:13;;;;;;;20.93;12.30;;;;;;;;;;6243950;28;20182;-72
2023/10/03 03:16:15;;;;;;;19.20;11.87;;;;;;;;;;6203940;28;20184;-72
2023/10/03 03:19:17;;;;;;;22.10;12.97;;;;;;;;;;6220305;28;20192;-73
2023/10/03 03:22:21;;;;;;;21.10;12.43;;;;;;;;;;6204229;28;20296;-73
2023/10/03 03:25:35;;;;;;;21.77;12.60;;;;;;;;;;6205546;28;20215;-73
2023/10/03 03:28:37;;;;;;;17.77;12.17;;;;;;;;;;6212595;28;20238;-73
2023/10/03 03:31:38;;;;;;;20.17;13.43;;;;;;;;;;6197351;28;20180;-70
2023/10/03 03:34:39;;;;;;;20.17;12.50;;;;;;;;;;6209921;28;20268;-73
2023/10/03 03:37:41;;;;;;;20.47;12.87;;;;;;;;;;6213054;28;20195;-73
2023/10/03 03:40:46;;;;;;;22.00;12.70;;;;;;;;;;6205257;28;20194;-74
2023/10/03 03:43:48;;;;;;;17.57;12.80;;;;;;;;;;6221593;28;20187;-74
2023/10/03 03:46:49;;;;;;;20.43;13.50;;;;;;;;;;6204007;28;20215;-74
2023/10/03 03:49:51;;;;;;;17.57;12.03;;;;;;;;;;6201407;28;20187;-74
2023/10/03 03:52:54;;;;;;;21.70;13.17;;;;;;;;;;6205837;28;20180;-74
2023/10/03 03:55:55;;;;;;;24.07;13.13;;;;;;;;;;6194787;28;20191;-74
2023/10/03 03:58:56;;;;;;;18.43;13.10;;;;;;;;;;6209695;28;20197;-74
2023/10/03 04:01:59;;;;;;;21.80;13.60;;;;;;;;;;6217268;28;20187;-73
2023/10/03 04:05:00;;;;;;;23.27;12.87;;;;;;;;;;6214640;28;20214;-72
2023/10/03 04:08:03;;;;;;;20.73;12.90;;;;;;;;;;6210059;28;20178;-72
2023/10/03 04:11:08;;;;;;;20.70;13.40;;;;;;;;;;6214101;28;20274;-73
2023/10/03 04:14:09;;;;;;;20.13;13.77;;;;;;;;;;6238626;28;20197;-73
2023/10/03 04:17:15;;;;;;;19.47;12.43;;;;;;;;;;6202753;28;20205;-73
2023/10/03 04:20:21;;;;;;;22.90;14.23;;;;;;;;;;6199568;28;20194;-73
2023/10/03 04:23:22;;;;;;;18.37;12.73;;;;;;;;;;6227822;28;20280;-74
2023/10/03 04:26:24;;;;;;;22.40;13.10;;;;;;;;;;6203892;28;20206;-75
2023/10/03 04:29:26;;;;;;;20.93;13.03;;;;;;;;;;6213782;28;20349;-70
2023/10/03 04:32:27;;;;;;;22.77;13.70;;;;;;;;;;6214897;28;20190;-73
2023/10/03 04:35:28;;;;;;;21.60;12.13;;;;;;;;;;6211831;28;20190;-73
2023/10/03 04:38:29;;;;;;;22.80;12.63;;;;;;;;;;6215329;28;20199;-73
2023/10/03 04:41:30;;;;;;;18.80;11.83;;;;;;;;;;6214171;28;20191;-73
2023/10/03 04:44:34;;;;;;;19.40;12.30;;;;;;;;;;6206097;28;20210;-73
2023/10/03 04:47:35;;;;;;;20.37;12.63;;;;;;;;;;6204562;28;20242;-73
2023/10/03 04:50:36;;;;;;;18.83;12.80;;;;;;;;;;6228061;28;20219;-73
2023/10/03 04:53:37;;;;;;;16.77;12.20;;;;;;;;;;6228032;28;20179;-74
2023/10/03 04:56:38;;;;;;;18.87;12.73;;;;;;;;;;6212480;28;20186;-74
2023/10/03 04:59:39;;;;;;;20.30;13.23;;;;;;;;;;6210587;28;20221;-74
2023/10/03 05:02:42;;;;;;;18.80;13.07;;;;;;;;;;6219028;28;20217;-72
2023/10/03 05:05:45;;;;;;;18.90;12.03;;;;;;;;;;6207062;28;20203;-72
2023/10/03 05:08:46;;;;;;;18.60;12.20;;;;;;;;;;6200407;28;20215;-72
2023/10/03 05:11:50;;;;;;;18.33;12.70;;;;;;;;;;6211934;28;20283;-73
2023/10/03 05:14:51;;;;;;;18.77;12.67;;;;;;;;;;6217429;28;20218;-73
2023/10/03 05:17:56;;;;;;;20.83;13.10;;;;;;;;;;6233502;28;20195;-73
2023/10/03 05:20:57;;;;;;;18.87;12.47;;;;;;;;;;6229552;28;20193;-73
2023/10/03 05:23:59;;;;;;;22.97;13.13;;;;;;;;;;6194832;28;20301;-73
2023/10/03 05:27:01;;;;;;;19.10;12.13;;;;;;;;;;6226440;28;20194;-73
2023/10/03 05:30:05;;;;;;;19.97;13.13;;;;;;;;;;6230413;28;20197;-73
2023/10/03 05:33:06;;;;;;;19.17;12.80;;;;;;;;;;6217334;28;20198;-73
2023/10/03 05:36:13;;;;;;;19.97;12.43;;;;;;;;;;6216364;28;20190;-73
2023/10/03 05:39:15;;;;;;;18.87;12.47;;;;;;;;;;6234977;28;20274;-73
2023/10/03 05:42:17;;;;;;;19.33;12.50;;;;;;;;;;6228520;28;20187;-73
2023/10/03 05:45:19;;;;;;;20.13;12.57;;;;;;;;;;6232884;28;20218;-73
2023/10/03 05:48:25;;;;;;;22.53;12.77;;;;;;;;;;6228142;28;20269;-73
2023/10/03 05:51:26;;;;;;;19.07;12.07;;;;;;;;;;6210607;28;20623;-74
2023/10/03 05:54:27;;;;;;;17.57;12.60;;;;;;;;;;6213123;28;20242;-73
2023/10/03 05:57:28;;;;;;;21.00;12.33;;;;;;;;;;6220386;28;20244;-73
2023/10/03 06:00:29;;;;;;;19.33;12.40;;;;;;;;;;6234559;28;20214;-73
2023/10/03 06:03:31;;;;;;;20.00;12.70;;;;;;;;;;6220831;28;20189;-73
2023/10/03 06:06:32;;;;;;;19.17;12.63;;;;;;;;;;6232623;28;20210;-73
2023/10/03 06:09:34;;;;;;;18.97;12.93;;;;;;;;;;6215888;28;20182;-73
2023/10/03 06:12:35;;;;;;;22.03;13.13;;;;;;;;;;6212763;28;20181;-73
2023/10/03 06:15:37;;;;;;;18.40;12.13;;;;;;;;;;6213471;28;20178;-73
2023/10/03 06:18:41;;;;;;;18.07;12.37;;;;;;;;;;6229322;28;20283;-73
2023/10/03 06:21:42;;;;;;;20.13;12.83;;;;;;;;;;6223757;28;20230;-73
2023/10/03 06:24:45;;;;;;;17.40;12.13;;;;;;;;;;6211415;28;20286;-73
2023/10/03 06:27:46;;;;;;;20.97;13.87;;;;;;;;;;6227610;28;20206;-73
2023/10/03 06:30:47;;;;;;;22.07;13.57;;;;;;;;;;6216462;28;20296;-73
2023/10/03 06:33:49;;;;;;;18.07;12.07;;;;;;;;;;6210957;28;20194;-73
2023/10/03 06:36:50;;;;;;;21.80;13.07;;;;;;;;;;6217010;28;20186;-73
2023/10/03 06:39:52;;;;;;;21.33;12.73;;;;;;;;;;6206866;28;20225;-73
2023/10/03 06:42:53;;;;;;;19.03;13.23;;;;;;;;;;6209425;28;20202;-73
2023/10/03 06:45:54;;;;;;;20.10;12.73;;;;;;;;;;6210571;28;20218;-73
2023/10/03 06:48:55;;;;;;;19.87;13.53;;;;;;;;;;6209886;28;20195;-73
2023/10/03 06:51:57;;;;;;;22.40;14.50;;;;;;;;;;6213744;28;20194;-73
2023/10/03 06:54:58;;;;;;;18.40;13.40;;;;;;;;;;6213974;28;20285;-73
2023/10/03 06:58:00;;;;;;;22.17;14.20;;;;;;;;;;6227499;28;20190;-73
2023/10/03 07:01:01;;;;;;;23.23;14.77;;;;;;;;;;6212671;28;20205;-73
2023/10/03 07:04:02;;;;;;;20.27;14.50;;;;;;;;;;6220269;28;20262;-73
2023/10/03 07:07:05;;;;;;;21.60;13.70;;;;;;;;;;6206058;28;20223;-73
2023/10/03 07:10:07;;;;;;;22.97;14.60;;;;;;;;;;6232839;28;20183;-73
2023/10/03 07:13:08;;;;;;;23.73;14.10;;;;;;;;;;6235510;28;20235;-73
2023/10/03 07:16:11;;;;;;;21.17;13.30;;;;;;;;;;6209816;28;20182;-73
2023/10/03 07:19:14;;;;;;;19.90;13.67;;;;;;;;;;6200356;28;20215;-73
2023/10/03 07:22:15;;;;;;;23.27;14.57;;;;;;;;;;6220093;28;20318;-73
2023/10/03 07:25:16;;;;;;;22.17;13.40;;;;;;;;;;6216363;28;20210;-73
2023/10/03 07:28:17;;;;;;;24.10;14.10;;;;;;;;;;6212018;28;20190;-73
2023/10/03 07:31:18;;;;;;;21.23;13.17;;;;;;;;;;6208558;28;20194;-73
2023/10/03 07:34:21;;;;;;;21.97;13.43;;;;;;;;;;6203178;28;20186;-73
2023/10/03 07:37:22;;;;;;;21.27;13.07;;;;;;;;;;6195764;28;20191;-73
2023/10/03 07:40:24;;;;;;;18.03;12.97;;;;;;;;;;6214945;28;20191;-73
2023/10/03 07:43:25;;;;;;;23.47;14.30;;;;;;;;;;6211948;28;20188;-74
2023/10/03 07:46:26;;;;;;;25.87;13.40;;;;;;;;;;6209167;28;20214;-73
2023/10/03 07:49:29;;;;;;;18.80;13.10;;;;;;;;;;6209156;28;20279;-73
2023/10/03 07:52:30;;;;;;;18.63;13.50;;;;;;;;;;6221723;28;20235;-73
2023/10/03 07:55:35;;;;;;;22.37;14.23;;;;;;;;;;6211985;28;20266;-73
2023/10/03 07:58:37;;;;;;;19.80;13.30;;;;;;;;;;6205945;28;20195;-73
2023/10/03 08:01:38;;;;;;;23.40;14.30;;;;;;;;;;6206683;28;20188;-73
2023/10/03 08:04:41;;;;;;;22.07;14.80;;;;;;;;;;6206764;28;20211;-73
2023/10/03 08:07:47;;;;;;;23.83;14.43;;;;;;;;;;6210110;28;20188;-73
2023/10/03 08:10:49;;;;;;;22.13;13.90;;;;;;;;;;6230888;28;20187;-73
2023/10/03 08:13:50;;;;;;;20.27;13.30;;;;;;;;;;6207470;28;20190;-73
2023/10/03 08:16:56;;;;;;;22.70;14.33;;;;;;;;;;6204243;28;20191;-73
2023/10/03 08:20:03;;;;;;;22.27;15.00;;;;;;;;;;6206871;28;20189;-73
2023/10/03 08:23:04;;;;;;;20.57;13.60;;;;;;;;;;6224049;28;20241;-73
2023/10/03 08:26:05;;;;;;;22.17;14.20;;;;;;;;;;6209420;28;20206;-73
2023/10/03 08:29:06;;;;;;;18.70;12.87;;;;;;;;;;6227686;28;20261;-73
2023/10/03 08:32:09;;;;;;;16.60;12.47;;;;;;;;;;6204778;28;20226;-73
2023/10/03 08:35:10;;;;;;;18.43;13.07;;;;;;;;;;6209983;28;20191;-73
2023/10/03 08:38:13;;;;;;;20.83;13.70;;;;;;;;;;6232122;28;20191;-73
2023/10/03 08:41:17;;;;;;;17.73;13.70;;;;;;;;;;6215714;28;20275;-73
2023/10/03 08:44:20;;;;;;;18.03;13.03;;;;;;;;;;6234090;28;20222;-73
2023/10/03 08:47:28;;;;;;;19.63;13.13;;;;;;;;;;6215196;28;20198;-73
2023/10/03 08:50:34;;;;;;;18.03;13.47;;;;;;;;;;6233050;28;20175;-73
2023/10/03 08:53:35;;;;;;;20.00;13.63;;;;;;;;;;6235127;28;20183;-73
2023/10/03 08:56:36;;;;;;;18.53;13.40;;;;;;;;;;6209708;28;20326;-73
2023/10/03 08:59:41;;;;;;;18.83;12.97;;;;;;;;;;6215537;28;20194;-73
2023/10/03 09:02:45;;;;;;;21.47;13.70;;;;;;;;;;6211675;28;20218;-73
2023/10/03 09:05:47;;;;;;;21.23;14.40;;;;;;;;;;6211952;28;20203;-74
2023/10/03 09:09:07;;;;;;;23.07;13.87;;;24.00;50.00;;;;;;6226901;28;20282;-73
2023/10/03 09:12:09;;;;;;;18.80;12.67;;;16.30;86.00;;;;;;6199815;28;20184;-73
2023/10/03 09:15:10;;;;;;;18.17;12.97;;;16.40;86.50;;;;;;6235325;28;20199;-73
2023/10/03 09:18:15;;;;;;;18.00;13.00;;;16.50;86.90;;;;;;6200010;28;20192;-73
2023/10/03 09:21:23;;;;;;;20.77;13.83;;;16.50;87.00;;;;;;6216071;28;20200;-73
2023/10/03 09:24:25;;;;;;;17.83;12.43;;;16.70;84.50;;;;;;6196724;28;20273;-73
2023/10/03 09:27:30;;;;;;;19.20;12.80;;;16.80;84.80;;;;;;6212946;28;20184;-73
2023/10/03 09:30:38;;;;;;;18.93;12.87;;;16.90;82.60;;;;;;6205751;28;20191;-73
2023/10/03 09:33:39;;;;;;;18.93;12.90;;;17.00;82.60;;;;;;6215002;28;20194;-73
2023/10/03 09:36:41;;;;;;;19.17;12.13;;;;;;;;;;6208589;28;20245;-73
2023/10/03 09:39:48;;;;;;;18.07;13.77;;;;;;;;;;6231703;28;20188;-73
2023/10/03 09:42:49;;;;;;;19.13;12.73;;;;;;;;;;6212770;28;20192;-73
2023/10/03 09:45:55;;;;;;;18.53;12.50;;;;;;;;;;6209751;28;20199;-73
2023/10/03 09:49:07;;;;;;;21.30;13.13;;;;;;;;;;6232144;28;20194;-73
2023/10/03 09:52:16;;;;;;;20.30;14.10;;;;;;;;;;6228173;28;20190;-73
2023/10/03 09:55:21;;;;;;;21.53;15.10;;;;;;;;;;6228878;28;20188;-73
2023/10/03 09:58:31;;;;;;;24.40;15.27;;;;;;;;;;6223542;28;20218;-73
2023/10/03 10:01:33;;;;;;;21.90;14.33;;;;;;;;;;6234887;28;20195;-74
2023/10/03 10:04:35;;;;;;;21.83;14.77;;;;;;;;;;6209806;28;20253;-74
2023/10/03 10:07:50;;;;;;;19.67;13.77;;;17.10;81.90;;;;;;6214853;28;20190;-73
2023/10/03 10:11:07;;;;;;;22.43;14.53;;;18.30;79.10;;;;;;6228881;28;20175;-73
2023/10/03 10:14:09;;;;;;;21.27;14.07;;;;;;;;;;6207632;28;20242;-73
2023/10/03 10:17:13;;;;;;;22.97;16.17;;;;;;;;;;6203115;28;20301;-73
2023/10/03 10:20:21;;;;;;;20.73;14.90;;;;;;;;;;6225938;28;20192;-73
2023/10/03 10:23:23;;;;;;;19.30;13.77;;;;;;;;;;6209808;28;20258;-73
2023/10/03 10:26:28;;;;;;;20.20;14.43;;;;;;;;;;6210324;28;20211;-73
2023/10/03 10:29:34;;;;;;;20.90;14.57;;;;;;;;;;6231459;28;20186;-73
2023/10/03 10:32:35;;;;;;;22.00;14.47;;;;;;;;;;6219214;28;20248;-73
2023/10/03 10:35:55;;;;;;;17.93;13.63;;;;;;;;;;6210960;28;20212;-73
2023/10/03 10:38:56;;;;;;;20.47;13.77;;;;;;;;;;6228462;28;20271;-73
2023/10/03 10:42:10;;;;;;;19.50;13.47;;;;;;;;;;6214099;28;20198;-73
2023/10/03 10:45:14;;;;;;;21.23;14.63;;;;;;;;;;6210072;28;20302;-74
2023/10/03 10:48:16;;;;;;;20.37;14.30;;;;;;;;;;6223887;28;20171;-73
2023/10/03 10:51:17;;;;;;;18.80;13.63;;;;;;;;;;6232742;28;20203;-73
2023/10/03 10:54:22;;;;;;;21.47;14.30;;;;;;;;;;6208056;28;20189;-73
2023/10/03 10:57:28;;;;;;;18.27;13.60;;;;;;;;;;6218141;28;20206;-73
2023/10/03 11:00:29;;;;;;;21.30;13.80;;;;;;;;;;6218207;28;20183;-73
2023/10/03 11:03:30;;;;;;;21.17;14.90;;;;;;;;;;6217529;28;20196;-73
2023/10/03 11:06:31;;;;;;;18.77;13.13;;;;;;;;;;6204115;28;20230;-73
2023/10/03 11:09:36;;;;;;;23.03;14.90;;;;;;;;;;6215592;28;20244;-73
2023/10/03 11:12:38;;;;;;;19.77;14.80;;;;;;;;;;6233392;28;20183;-73
2023/10/03 11:15:46;;;;;;;17.13;13.23;;;;;;;;;;6229602;28;20193;-73
2023/10/03 11:18:48;;;;;;;21.40;14.93;;;;;;;;;;6222361;28;20267;-73
2023/10/03 11:21:49;;;;;;;21.23;15.00;;;;;;;;;;6208118;28;20192;-73
2023/10/03 11:24:50;;;;;;;17.30;13.90;;;;;;;;;;6198189;28;20218;-73
2023/10/03 11:27:51;;;;;;;21.20;14.97;;;;;;;;;;6223675;28;20182;-73
2023/10/03 11:31:01;;;;;;;19.17;14.63;;;;;;;;;;6208425;28;20197;-73
2023/10/03 11:34:02;;;;;;;20.67;14.20;;;;;;;;;;6211220;28;20271;-73
2023/10/03 11:37:04;;;;;;;17.10;13.27;;;;;;;;;;6202770;28;20202;-73
2023/10/03 11:40:11;;;;;;;19.00;14.03;;;;;;;;;;6196840;28;20211;-74
2023/10/03 11:43:12;;;;;;;18.73;13.30;;;21.50;74.40;;;;;;6227249;28;20225;-73
2023/10/03 11:46:15;;;;;;;21.20;13.83;;;21.40;74.60;;;;;;6192448;28;20219;-74
2023/10/03 11:49:17;;;;;;;19.40;13.70;;;;;;;;;;6180338;28;20196;-73
2023/10/03 11:52:18;;;;;;;18.57;13.83;;;;;;;;;;6213124;28;20183;-73
2023/10/03 11:55:19;;;;;;;20.33;15.00;;;;;;;;;;6214624;28;20208;-73
2023/10/03 11:58:20;;;;;;;18.43;13.40;;;;;;;;;;6215477;28;20281;-74
2023/10/03 12:01:23;;;;;;;17.90;12.67;;;;;;;;;;6204703;28;20266;-74
2023/10/03 12:04:24;;;;;;;18.73;13.57;;;21.50;73.20;;;;;;6226758;28;20191;-70
2023/10/03 12:07:25;;;;;;;19.87;14.00;;;22.30;71.80;;;;;;6191449;28;20254;-70
2023/10/03 12:10:26;;;;;;;22.47;14.27;;;22.50;69.40;;;;;;6220714;28;20208;-70
2023/10/03 12:13:27;;;;;;;18.03;13.73;;;;;;;;;;6183271;28;20202;-74
2023/10/03 12:16:28;;;;;;;17.03;12.70;;;22.60;69.50;;;;;;6224625;28;20198;-74
2023/10/03 12:19:31;;;;;;;19.37;13.17;;;;;;;;;;6209880;28;20201;-74
2023/10/03 12:22:32;;;;;;;18.67;13.07;;;;;;;;;;6201292;28;20262;-74
2023/10/03 12:25:33;;;;;;;18.17;12.90;;;;;;;;;;6197008;28;20231;-71
2023/10/03 12:28:35;;;;;;;14.30;12.10;;;;;;;;;;6199136;28;20257;-71
2023/10/03 12:31:36;;;;;;;16.17;12.77;;;;;;;;;;6211899;28;20206;-71
2023/10/03 12:34:37;;;;;;;15.17;12.83;;;;;;;;;;6205235;28;20278;-71
2023/10/03 12:37:39;;;;;;;14.50;12.60;;;24.00;50.00;;;;;;6217565;28;20309;-71
2023/10/03 12:40:39;;;;;;;16.93;12.97;;;26.50;61.10;;;;;;6222701;28;20336;-71
2023/10/03 12:43:46;;;;;;;14.10;12.57;;;26.60;60.70;;;;;;6177441;28;20194;-71
2023/10/03 12:46:46;;;;;;;15.90;13.13;;;26.50;59.70;;;;;;6193270;28;20223;-71
2023/10/03 12:49:47;;;;;;;17.53;13.37;;;26.40;60.70;;;;;;6214898;28;20193;-71
2023/10/03 12:52:48;;;;;;;13.80;12.30;;;26.20;61.70;;;;;;6183762;28;20211;-71
2023/10/03 12:55:49;;;;;;;16.10;13.33;;;26.10;62.40;;;;;;6211231;28;20206;-71
2023/10/03 12:58:50;;;;;;;15.63;13.33;;;26.00;62.60;;;;;;6208891;28;20193;-71
2023/10/03 13:01:51;;;;;;;16.10;13.40;;;26.00;63.20;;;;;;6231363;28;20259;-72
2023/10/03 13:04:52;;;;;;;18.30;14.20;;;26.00;63.90;;;;;;6191799;28;20215;-72
2023/10/03 13:07:53;;;;;;;15.93;12.70;;;26.00;61.30;;;;;;6201364;28;20206;-69
2023/10/03 13:10:54;;;;;;;16.27;12.83;;;25.90;62.10;;;;;;6201357;28;20190;-71
2023/10/03 13:13:54;;;;;;;15.40;12.00;;;26.00;63.00;;;;;;6210750;28;20192;-72
2023/10/03 13:16:59;;;;;;;16.23;12.87;;;26.10;63.00;;;;;;6208864;28;20262;-71
2023/10/03 13:20:04;;;;;;;17.17;12.80;;;26.40;63.00;;;;;;6215658;28;20197;-71
2023/10/03 13:23:05;;;;;;;17.67;13.97;;;;;;;;;;6206086;28;20292;-70
2023/10/03 13:26:07;;;;;;;13.07;11.43;;;;;;;;;;6217856;28;20210;-70
2023/10/03 13:29:08;;;;;;;13.80;12.13;;;29.00;57.50;;;;;;6214845;28;20221;-70
2023/10/03 13:32:09;;;;;;;14.03;12.07;;;;;;;;;;6196481;28;20295;-70
2023/10/03 13:35:13;;;;;;;15.53;12.20;;;;;;;;;;6231630;28;20193;-68
2023/10/03 13:38:14;;;;;;;13.88;12.15;;;;;;;;;;6219250;28;20186;-71
2023/10/03 13:41:15;;;;;;;13.05;11.68;;;;;;;;;;6227409;28;20270;-69
2023/10/03 13:44:16;;;;;;;14.73;12.07;;;32.50;50.00;;;;;;6218195;28;20198;-69
2023/10/03 13:47:16;;;;;;;13.15;11.75;;;36.70;40.40;;;;;;6200346;28;20220;-68
2023/10/03 13:50:17;;;;;;;12.75;11.43;;;36.90;40.80;;;;;;6205194;28;20514;-68
2023/10/03 13:53:20;;;;;;;12.80;11.55;;;;;;;;;;6222058;28;20241;-67
2023/10/03 13:56:21;;;;;;;13.20;11.88;;;;;;;;;;6208106;28;20182;-67
2023/10/03 13:59:22;;;;;;;12.82;11.38;;;37.20;40.20;;;;;;6210935;28;20191;-68
2023/10/03 14:02:23;;;;;;;12.32;11.10;;;36.90;39.80;;;;;;6196357;28;20200;-67
2023/10/03 14:05:23;;;;;;;15.27;12.43;;;36.50;40.20;;;;;;6197500;28;20211;-67
2023/10/03 14:08:24;;;;;;;12.73;11.10;;;36.00;40.90;;;;;;6201921;28;20196;-68
2023/10/03 14:11:25;;;;;;;15.57;12.20;;;35.20;42.40;;;;;;6220904;28;20204;-68
2023/10/03 14:14:28;;;;;;;14.85;11.77;;;34.40;43.20;;;;;;6229206;28;20190;-67
2023/10/03 14:17:29;;;;;;;12.50;11.30;;;34.20;43.50;;;;;;6206024;28;20182;-68
2023/10/03 14:20:30;;;;;;;12.65;11.32;;;;;;;;;;6211705;28;20198;-69
2023/10/03 14:23:31;;;;;;;13.40;12.00;;;33.60;45.40;;;;;;6196432;28;20231;-66
2023/10/03 14:26:34;;;;;;;13.80;12.40;;;;;;;;;;6197756;28;20203;-72
2023/10/03 14:29:35;;;;;;;14.20;12.10;;;;;;;;;;6228739;28;20193;-72
2023/10/03 14:32:42;;;;;;;14.90;12.60;;;32.20;47.50;;;;;;6214164;28;20194;-73
2023/10/03 14:35:44;;;;;;;14.53;12.07;;;;;;;;;;6219200;28;20216;-73
2023/10/03 14:38:45;;;;;;;14.63;12.23;;;;;;;;;;6209791;28;20214;-73
2023/10/03 14:41:50;;;;;;;14.47;12.53;;;;;;;;;;6207587;28;20191;-73
2023/10/03 14:44:51;;;;;;;14.43;11.93;;;;;;;;;;6209333;28;20318;-73
2023/10/03 14:47:52;;;;;;;14.93;12.10;;;;;;;;;;6205454;28;20197;-73
2023/10/03 14:50:57;;;;;;;14.83;12.17;;;;;;;;;;6212922;28;20188;-73
2023/10/03 14:53:57;;;;;;;16.60;12.10;;;30.70;49.60;;;;;;6218687;28;20228;-73
2023/10/03 14:56:58;;;;;;;15.07;12.37;;;30.30;51.00;;;;;;6207376;28;20190;-73
2023/10/03 14:59:59;;;;;;;13.30;11.73;;;29.80;52.00;;;;;;6202620;28;20194;-73
2023/10/03 15:03:00;;;;;;;15.87;13.07;;;29.70;51.40;;;;;;6194587;28;20184;-73
2023/10/03 15:06:04;;;;;;;14.57;12.17;;;29.70;52.30;;;;;;6216810;28;20214;-73
2023/10/03 15:09:05;;;;;;;12.87;11.47;;;29.60;52.80;;;;;;6222429;28;20194;-73
2023/10/03 15:12:06;;;;;;;14.13;12.63;;;29.90;52.20;;;;;;6200253;28;20244;-73
2023/10/03 15:15:07;;;;;;;13.27;11.57;;;29.90;51.00;;;;;;6203318;28;20205;-72
2023/10/03 15:18:09;;;;;;;17.50;12.00;;;30.20;51.10;;;;;;6213329;28;20281;-72
2023/10/03 15:21:11;;;;;;;14.67;11.97;;;30.30;50.60;;;;;;6195075;28;20334;-72
2023/10/03 15:24:12;;;;;;;19.73;13.27;;;30.00;51.20;;;;;;6184303;28;20239;-72
2023/10/03 15:27:14;;;;;;;17.40;12.37;;;;;;;;;;6190149;28;20272;-72
2023/10/03 15:30:16;;;;;;;14.07;12.13;;;;;;;;;;6207075;28;20218;-72
2023/10/03 15:33:21;;;;;;;16.00;11.57;;;;;;;;;;6215135;28;20187;-73
2023/10/03 15:36:22;;;;;;;16.17;12.97;;;;;;;;;;6223981;28;20182;-73
2023/10/03 15:39:23;;;;;;;15.70;12.10;;;;;;;;;;6219097;28;20187;-73
2023/10/03 15:42:25;;;;;;;17.33;12.77;;;;;;;;;;6202885;28;20198;-74
2023/10/03 15:45:26;;;;;;;19.03;12.20;;;;;;;;;;6228737;28;20206;-73
2023/10/03 15:48:28;;;;;;;23.53;13.10;;;;;;;;;;6206721;28;20241;-73
2023/10/03 15:51:29;;;;;;;18.70;12.70;;;;;;;;;;6214648;28;20190;-73
2023/10/03 15:54:32;;;;;;;20.30;12.40;;;;;;;;;;6210454;28;20191;-73
2023/10/03 15:57:33;;;;;;;16.90;12.00;;;;;;;;;;6210491;28;20190;-73
2023/10/03 16:00:38;;;;;;;16.97;12.20;;;;;;;;;;6213960;28;20196;-73
2023/10/03 16:03:42;;;;;;;18.23;13.57;;;;;;;;;;6219167;28;20183;-73
2023/10/03 16:06:43;;;;;;;16.60;12.60;;;24.00;66.10;;;;;;6208038;28;20301;-73
2023/10/03 16:09:49;;;;;;;14.43;11.70;;;;;;;;;;6197471;28;20190;-73
2023/10/03 16:12:50;;;;;;;15.97;12.80;;;24.00;50.00;;;;;;6206194;28;20263;-73
2023/10/03 16:15:51;;;;;;;17.03;13.80;;;22.60;71.20;;;;;;6213317;28;20203;-73
2023/10/03 16:18:52;;;;;;;16.30;12.57;;;;;;;;;;6185906;28;20253;-71
2023/10/03 16:21:53;;;;;;;14.77;11.90;;;22.50;72.00;;;;;;6228759;28;20191;-74
2023/10/03 16:24:53;;;;;;;15.77;12.73;;;22.00;73.60;;;;;;6186414;28;20224;-73
2023/10/03 16:27:55;;;;;;;18.30;12.50;;;;;;;;;;6191610;28;20234;-73
2023/10/03 16:30:57;;;;;;;17.03;13.17;;;;;;;;;;6215119;28;20182;-73
2023/10/03 16:33:58;;;;;;;16.60;13.13;;;;;;;;;;6230364;28;20182;-72
2023/10/03 16:37:00;;;;;;;15.77;12.03;;;;;;;;;;6222003;28;20345;-72
2023/10/03 16:40:03;;;;;;;15.70;11.97;;;;;;;;;;6206496;28;20286;-72
2023/10/03 16:43:07;;;;;;;16.33;12.90;;;;;;;;;;6201692;28;20318;-72
2023/10/03 16:46:09;;;;;;;15.30;12.47;;;;;;;;;;6207673;28;20260;-72
2023/10/03 16:49:11;;;;;;;15.37;13.23;;;;;;;;;;6223341;28;20189;-72
2023/10/03 16:52:12;;;;;;;15.77;12.23;;;;;;;;;;6242127;28;20252;-72
2023/10/03 16:55:15;;;;;;;19.47;12.93;;;;;;;;;;6203799;28;20195;-71
2023/10/03 16:58:16;;;;;;;18.77;13.40;;;;;;;;;;6223042;28;20195;-72
2023/10/03 17:01:17;;;;;;;16.13;12.43;;;;;;;;;;6220052;28;20209;-72
2023/10/03 17:04:18;;;;;;;15.83;12.13;;;24.00;50.00;;;;;;6226114;28;20193;-72
2023/10/03 17:07:19;;;;;;;17.50;13.43;;;20.20;79.60;;;;;;6195425;28;20269;-72
2023/10/03 17:10:22;;;;;;;18.47;12.83;;;20.10;79.90;;;;;;6194839;28;20217;-72
2023/10/03 17:13:23;;;;;;;15.93;12.63;;;20.00;80.40;;;;;;6215765;28;20187;-73